ADDS METAR Data INFO
IDs: Format: Raw Decoded Include TAF

Data at: 1054 UTC 18 Aug 2017

KEBG 181035Z AUTO 00000KT 7SM CLR 27/25 A2997 RMK AO2 T02660247
KEBG 181015Z AUTO 14003KT 7SM CLR 27/25 A2997 RMK AO2 LTG DSNT SW T02660246
KEBG 180955Z AUTO 14003KT 7SM CLR 27/25 A2997 RMK AO2 T02700249
KEBG 180935Z AUTO 15004KT 7SM CLR 27/25 A2997 RMK AO2 T02720250
KEBG 180915Z AUTO 14005KT 10SM CLR 27/25 A2998 RMK AO2 T02740250
KEBG 180855Z AUTO 15004KT 10SM CLR 28/25 A2998 RMK AO2 T02770251
KEBG 180835Z AUTO 15004KT 10SM CLR 28/25 A2999 RMK AO2 T02800251
KEBG 180815Z AUTO 15005KT 10SM CLR 28/25 A2999 RMK AO2 T02800250
KEBG 180755Z AUTO 15006KT 10SM CLR 28/25 A2999 RMK AO2 T02810251
KEBG 180735Z AUTO 14008KT 10SM SCT017 28/25 A3000 RMK AO2 T02830250
KEBG 180715Z AUTO 16006KT 10SM SCT015 28/25 A3000 RMK AO2 T02820250
KEBG 180655Z AUTO 15006KT 10SM BKN015 28/25 A3001 RMK AO2 T02830250
KEBG 180635Z AUTO 14006KT 10SM SCT015 28/25 A3001 RMK AO2 T02820250
KEBG 180615Z AUTO 14008KT 10SM CLR 28/25 A3001 RMK AO2 T02830248
KEBG 180555Z AUTO 13008KT 10SM CLR 28/25 A3001 RMK AO2 T02840247 10350 20239 403830239
KEBG 180535Z AUTO 13009KT 10SM CLR 29/25 A3001 RMK AO2 T02860246
KEBG 180515Z AUTO 13010KT 10SM CLR 29/25 A3001 RMK AO2 T02870245
KEBG 180455Z AUTO 13009KT 10SM CLR 29/24 A3001 RMK AO2 T02880243
KEBG 180435Z AUTO 13009KT 10SM CLR 29/24 A3001 RMK AO2 LTG DSNT SW T02900241
KEBG 180415Z AUTO 13010KT 10SM CLR 29/24 A3001 RMK AO2 T02910240
KEBG 180355Z AUTO 13009KT 10SM CLR 29/24 A3001 RMK AO2 T02930238
KEBG 180335Z AUTO 13009KT 10SM CLR 30/24 A3000 RMK AO2 T02970237
KEBG 180315Z AUTO 13009KT 10SM CLR 30/24 A2999 RMK AO2 T02980235
KEBG 180255Z AUTO 13011KT 10SM CLR 30/23 A2998 RMK AO2 T03000233
KEBG 180235Z AUTO 13008KT 10SM CLR 31/23 A2997 RMK AO2 T03050229
KEBG 180215Z AUTO 13010KT 10SM CLR 31/23 A2995 RMK AO2 T03090225
KEBG 180155Z AUTO 13011KT 10SM CLR 31/22 A2994 RMK AO2 T03120223
KEBG 180135Z AUTO 13012G15KT 10SM CLR 32/22 A2993 RMK AO2 T03170222
KEBG 180115Z AUTO 14013G18KT 10SM CLR 32/22 A2992 RMK AO2 T03210219
KEBG 180055Z AUTO 13016G20KT 10SM CLR 33/22 A2990 RMK AO2 T03290217
KEBG 180035Z AUTO 13017G23KT 10SM CLR 34/22 A2990 RMK AO2 T03370215
KEBG 180015Z AUTO 12015KT 10SM SCT048 34/22 A2988 RMK AO2 T03430215
KEBG 172355Z AUTO 13015G20KT 10SM SCT050 35/21 A2988 RMK AO2 T03500211 10383 20350
KEBG 172335Z AUTO 13017KT 10SM CLR 36/20 A2987 RMK AO2 T03560204
KEBG 172315Z AUTO 15016G21KT 10SM CLR 36/20 A2987 RMK AO2 T03620196
KEBG 172255Z AUTO 14016G23KT 10SM CLR 37/19 A2987 RMK AO2 T03650185
KEBG 172235Z AUTO 13017G22KT 10SM CLR 37/19 A2987 RMK AO2 T03700189
KEBG 172215Z AUTO 15016G23KT 10SM CLR 37/18 A2988 RMK AO2 T03720178
KEBG 172155Z AUTO 15016G20KT 10SM CLR 38/19 A2989 RMK AO2 T03760189
KEBG 172135Z AUTO 13017G23KT 10SM CLR 38/18 A2990 RMK AO2 T03800183
KEBG 172115Z AUTO 15013G20KT 10SM CLR 38/17 A2990 RMK AO2 T03810170
KEBG 172055Z AUTO 14013G26KT 10SM CLR 38/18 A2991 RMK AO2 T03800180
KEBG 172035Z AUTO 14012G23KT 10SM CLR 38/18 A2993 RMK AO2 T03770179
KEBG 172015Z AUTO 16015G22KT 10SM CLR 38/18 A2994 RMK AO2 T03750176
KEBG 171955Z AUTO 15015G22KT 10SM CLR 37/18 A2995 RMK AO2 T03740181
KEBG 171935Z AUTO 15016G22KT 10SM CLR 37/18 A2996 RMK AO2 T03720178
KEBG 171915Z AUTO 17018G22KT 10SM CLR 38/17 A2996 RMK AO2 T03760170
KEBG 171855Z AUTO 16014G20KT 10SM SCT050 37/18 A2997 RMK AO2 T03740182
KEBG 171835Z AUTO 16017G22KT 10SM SCT055 37/19 A2998 RMK AO2 T03730189
KEBG 171815Z AUTO 16012G25KT 10SM SCT049 37/20 A2999 RMK AO2 T03670195
KEBG 171755Z AUTO 17019G24KT 10SM BKN049 36/20 A2999 RMK AO2 T03600198 10363 20263
KEBG 171735Z AUTO 16017G21KT 10SM BKN045 BKN050 36/21 A3000 RMK AO2 T03600207
KEBG 171715Z AUTO 15015G21KT 10SM BKN045 35/21 A3000 RMK AO2 T03530206
KEBG 171655Z AUTO 17014G22KT 10SM BKN043 35/21 A3001 RMK AO2 T03500207
KEBG 171635Z AUTO 14016G22KT 10SM BKN041 35/21 A3001 RMK AO2 T03510205
KEBG 171615Z AUTO 14016G20KT 10SM SCT039 34/21 A3001 RMK AO2 T03410214
KEBG 171555Z AUTO 15017G22KT 10SM SCT034 34/22 A3001 RMK AO2 T03350216
KEBG 171535Z AUTO 16014KT 10SM SCT031 33/22 A3001 RMK AO2 T03280221
KEBG 171515Z AUTO 15014KT 10SM SCT025 SCT032 32/23 A3000 RMK AO2 T03240228
KEBG 171455Z AUTO 16011G18KT 10SM SCT025 SCT032 32/23 A3001 RMK AO2 LTG DSNT S T03190234
KEBG 171435Z AUTO 16011G17KT 10SM SCT017 SCT023 31/24 A3001 RMK AO2 T03090239
KEBG 171415Z AUTO 16011G16KT 10SM BKN015 30/25 A3001 RMK AO2 T03040245
KEBG 171355Z AUTO 14009G14KT 10SM BKN015 OVC021 30/25 A3000 RMK AO2 T02990248
KEBG 171335Z AUTO 13007KT 10SM BKN015 OVC020 29/25 A3000 RMK AO2 T02880250
KEBG 171315Z AUTO 13004KT 7SM OVC015 28/25 A2999 RMK AO2 T02760251
KEBG 171255Z AUTO 00000KT 7SM OVC017 27/24 A2999 RMK AO2 T02650243
KEBG 171235Z AUTO 14003KT 5SM BR BKN017 26/24 A2998 RMK AO2 T02630240
KEBG 171215Z AUTO 14003KT 7SM CLR 27/24 A2998 RMK AO2 T02690240
KEBG 171155Z AUTO 15004KT 10SM SCT021 28/24 A2997 RMK AO2 7//// T02750242 10298 20275
KEBG 171135Z AUTO 15005KT 10SM SCT020 28/24 A2997 RMK AO2 T02770242
KEBG 171115Z AUTO 15006KT 10SM SCT018 SCT026 28/24 A2996 RMK AO2 T02800242
KEBG 171055Z AUTO 16006KT 10SM SCT018 BKN026 28/24 A2996 RMK AO2 T02810242
KEBG 171035Z AUTO 15008KT 10SM SCT018 28/24 A2996 RMK AO2 T02820241
KEBG 171015Z AUTO 16008KT 10SM CLR 28/24 A2995 RMK AO2 T02830241
KEBG 170955Z AUTO 15008KT 10SM SCT020 29/24 A2995 RMK AO2 T02850242
KEBG 170935Z AUTO 15009KT 10SM BKN020 29/24 A2995 RMK AO2 T02850243
KEBG 170915Z AUTO 16007KT 10SM SCT020 29/25 A2996 RMK AO2 T02850245
KEBG 170855Z AUTO 16008KT 10SM SCT020 29/24 A2996 RMK AO2 T02870244
KEBG 170835Z AUTO 16008KT 10SM BKN020 29/24 A2996 RMK AO2 T02900243
KEBG 170815Z AUTO 16009KT 10SM SCT020 29/24 A2997 RMK AO2 T02900244
KEBG 170755Z AUTO 16009KT 10SM CLR 29/24 A2997 RMK AO2 T02920243
KEBG 170735Z AUTO 16011G14KT 10SM CLR 29/24 A2997 RMK AO2 T02940242
KEBG 170715Z AUTO 16010G16KT 10SM CLR 30/24 A2997 RMK AO2 T02950241
KEBG 170655Z AUTO 16012G18KT 10SM CLR 30/24 A2996 RMK AO2 T02950241
KEBG 170635Z AUTO 16012G17KT 10SM CLR 30/24 A2996 RMK AO2 T02970242
KEBG 170615Z AUTO 16011G18KT 10SM SCT021 30/25 A2997 RMK AO2 T02970246
KEBG 170555Z AUTO 15011G18KT 10SM CLR 30/25 A2997 RMK AO2 T02980246 10352 20298
KEBG 170535Z AUTO 16012G16KT 10SM SCT021 SCT028 30/25 A2997 RMK AO2 T03000246
KEBG 170515Z AUTO 15013G18KT 10SM BKN023 BKN030 30/25 A2997 RMK AO2 T03010245
KEBG 170455Z AUTO 15013G18KT 10SM BKN023 30/25 A2997 RMK AO2 T03020247
KEBG 170435Z AUTO 16012G17KT 10SM OVC021 30/25 A2997 RMK AO2 T03030247
KEBG 170415Z AUTO 15010KT 10SM BKN021 OVC027 30/25 A2997 RMK AO2 T03020247
KEBG 170355Z AUTO 15012KT 10SM BKN023 30/24 A2996 RMK AO2 T03030244
KEBG 170335Z AUTO 15014G17KT 10SM CLR 31/24 A2996 RMK AO2 T03050240
KEBG 170315Z AUTO 15012G16KT 10SM CLR 31/24 A2994 RMK AO2 T03080236
KEBG 170255Z AUTO 15012G18KT 10SM CLR 31/23 A2994 RMK AO2 LTG DSNT NW T03100230
KEBG 170235Z AUTO 15012KT 10SM CLR 31/23 A2992 RMK AO2 T03120232
KEBG 170215Z AUTO 14013G17KT 10SM CLR 32/23 A2991 RMK AO2 T03150230
KEBG 170155Z AUTO 14011G17KT 10SM CLR 32/23 A2990 RMK AO2 T03180229
KEBG 170135Z AUTO 16012G18KT 10SM CLR 32/23 A2990 RMK AO2 T03220226
KEBG 170115Z AUTO 15014G22KT 10SM CLR 33/22 A2988 RMK AO2 T03250224
KEBG 170055Z AUTO 15012G23KT 10SM CLR 33/22 A2987 RMK AO2 T03310220
KEBG 170035Z AUTO 15016G21KT 10SM CLR 34/22 A2986 RMK AO2 T03370216
KEBG 170010Z AUTO 15015G23KT 10SM CLR 35/21 A2985 RMK AO2 T03460214
KEBG 162355Z AUTO 16016G22KT 10SM CLR 35/21 A2985 RMK AO2 T03530210 10386 20353
KEBG 162335Z AUTO 14016G24KT 10SM CLR 36/21 A2985 RMK AO2 T03560210
KEBG 162315Z AUTO 13017G22KT 10SM CLR 36/21 A2984 RMK AO2 T03630205
KEBG 162255Z AUTO 13019G23KT 10SM CLR 37/20 A2984 RMK AO2 T03690199